createdAt,value
2022-08-08T00:00:54.585Z,87.10
2022-08-08T00:02:54.498Z,87.20
2022-08-08T00:06:03.142Z,87.20
2022-08-08T00:08:43.536Z,86.70
2022-08-08T00:12:02.858Z,86.70
2022-08-08T00:14:48.311Z,87.50
2022-08-08T00:17:23.473Z,88.10
2022-08-08T00:20:01.299Z,88.60
2022-08-08T00:23:01.685Z,88.30
2022-08-08T00:25:39.130Z,88.30
2022-08-08T00:28:33.983Z,89.00
2022-08-08T00:32:21.474Z,89.30
2022-08-08T00:34:34.960Z,89.90
2022-08-08T00:37:47.667Z,89.60
2022-08-08T00:41:09.360Z,90.00
2022-08-08T00:43:40.629Z,90.00
2022-08-08T00:46:17.256Z,89.50
2022-08-08T00:49:23.104Z,89.50
2022-08-08T00:52:24.879Z,90.00
2022-08-08T00:55:17.741Z,90.10
2022-08-08T00:57:58.193Z,90.50
2022-08-08T01:00:33.358Z,90.40
2022-08-08T01:03:58.326Z,90.50
2022-08-08T01:06:59.938Z,90.70
2022-08-08T01:10:21.099Z,90.70
2022-08-08T01:12:58.419Z,90.80
2022-08-08T01:15:47.236Z,90.90
2022-08-08T01:18:25.377Z,91.00
2022-08-08T01:22:12.734Z,91.20
2022-08-08T01:24:37.437Z,91.30
2022-08-08T01:27:33.186Z,91.50
2022-08-08T01:30:43.487Z,91.60
2022-08-08T01:33:42.828Z,91.60
2022-08-08T01:36:34.718Z,91.80
2022-08-08T01:39:18.539Z,91.70
2022-08-08T01:42:01.569Z,91.90
2022-08-08T01:45:02.918Z,92.00
2022-08-08T01:48:14.798Z,92.30
2022-08-08T01:51:30.758Z,92.50
2022-08-08T01:55:26.545Z,92.80
2022-08-08T01:58:04.272Z,93.30
2022-08-08T02:00:57.346Z,93.30
2022-08-08T02:04:00.854Z,93.50
2022-08-08T02:07:06.405Z,93.70
2022-08-08T02:10:13.793Z,93.90
2022-08-08T02:13:54.485Z,93.90
2022-08-08T02:16:35.200Z,93.90
2022-08-08T02:19:41.737Z,93.90
2022-08-08T02:22:45.766Z,93.70
2022-08-08T02:25:48.642Z,93.80
2022-08-08T02:28:52.556Z,93.90
2022-08-08T02:32:01.303Z,94.00
2022-08-08T02:35:10.989Z,94.30
2022-08-08T02:38:25.641Z,94.50
2022-08-08T02:42:04.261Z,94.90
2022-08-08T02:45:18.571Z,95.20
2022-08-08T02:48:25.878Z,95.00
2022-08-08T02:51:46.348Z,95.10
2022-08-08T02:54:51.967Z,95.20
2022-08-08T02:57:58.489Z,95.40
2022-08-08T03:01:05.255Z,95.60
2022-08-08T03:05:04.714Z,95.90
2022-08-08T03:07:19.395Z,96.10
2022-08-08T03:10:32.578Z,96.30
2022-08-08T03:15:53.646Z,96.40
2022-08-08T03:16:36.041Z,96.60
2022-08-08T03:19:23.916Z,96.60
2022-08-08T03:21:58.560Z,96.50
2022-08-08T03:24:28.922Z,96.80
2022-08-08T03:27:21.756Z,96.80
2022-08-08T03:30:01.927Z,97.00
2022-08-08T03:32:57.685Z,97.10
2022-08-08T03:35:33.443Z,97.20
2022-08-08T03:38:57.942Z,97.20
2022-08-08T03:40:55.827Z,97.50
2022-08-08T03:43:38.225Z,97.70
2022-08-08T03:46:08.922Z,97.90
2022-08-08T03:49:56.374Z,98.20
2022-08-08T03:51:50.278Z,98.30
2022-08-08T03:54:41.651Z,98.40
2022-08-08T03:58:31.361Z,98.40
2022-08-08T03:59:59.546Z,98.40
2022-08-08T04:02:47.294Z,98.30
2022-08-08T04:05:28.273Z,98.20
2022-08-08T04:08:01.307Z,98.10
2022-08-08T04:10:32.047Z,98.00
2022-08-08T04:13:17.449Z,98.10
2022-08-08T04:15:54.337Z,98.20
2022-08-08T04:18:21.262Z,98.40
2022-08-08T04:20:47.993Z,98.40
2022-08-08T04:23:15.317Z,98.60
2022-08-08T04:25:42.435Z,98.60
2022-08-08T04:28:36.901Z,98.70
2022-08-08T04:30:57.925Z,98.80
2022-08-08T04:33:28.174Z,98.90
2022-08-08T04:36:06.250Z,98.90
2022-08-08T04:38:33.068Z,98.90
2022-08-08T04:41:02.235Z,98.90
2022-08-08T04:43:31.984Z,98.90
2022-08-08T04:46:15.038Z,98.90
2022-08-08T04:48:43.378Z,98.90
2022-08-08T04:51:10.211Z,98.90
2022-08-08T04:54:26.783Z,98.80
2022-08-08T04:56:24.448Z,98.50
2022-08-08T04:58:51.255Z,98.60
2022-08-08T05:01:19.646Z,98.60
2022-08-08T05:04:09.918Z,98.50
2022-08-08T05:06:40.430Z,98.40
2022-08-08T05:09:09.886Z,98.50
2022-08-08T05:11:40.790Z,98.50
2022-08-08T05:14:12.333Z,98.60
2022-08-08T05:16:52.485Z,98.70
2022-08-08T05:20:12.631Z,98.60
2022-08-08T05:22:17.425Z,98.80
2022-08-08T05:24:48.640Z,98.90
2022-08-08T05:27:17.575Z,99.00
2022-08-08T05:29:45.626Z,98.80
2022-08-08T05:32:24.599Z,98.70
2022-08-08T05:35:04.975Z,98.70
2022-08-08T05:37:53.094Z,98.80
2022-08-08T05:40:29.146Z,98.60
2022-08-08T05:43:17.273Z,96.90
2022-08-08T05:46:07.753Z,94.50
2022-08-08T05:48:38.625Z,90.60
2022-08-08T05:51:13.241Z,85.70
2022-08-08T05:54:24.790Z,84.80
2022-08-08T05:56:42.198Z,82.20
2022-08-08T06:00:00.731Z,82.20
2022-08-08T06:02:27.358Z,85.00
2022-08-08T06:04:58.881Z,85.50
2022-08-08T06:07:27.806Z,87.20
2022-08-08T06:09:59.654Z,88.30
2022-08-08T06:12:33.961Z,89.80
2022-08-08T06:15:06.325Z,90.00
2022-08-08T06:18:18.335Z,89.80
2022-08-08T06:20:25.814Z,89.90
2022-08-08T06:22:54.507Z,89.50
2022-08-08T06:26:35.228Z,89.50
2022-08-08T06:28:28.983Z,88.20
2022-08-08T06:31:01.863Z,88.20
2022-08-08T06:34:25.653Z,88.40
2022-08-08T06:36:46.683Z,87.40
2022-08-08T06:39:22.289Z,87.10
2022-08-08T06:42:10.267Z,88.20
2022-08-08T06:44:44.119Z,87.60
2022-08-08T06:47:12.007Z,88.40
2022-08-08T06:49:54.935Z,88.70
2022-08-08T06:52:24.327Z,88.20
2022-08-08T06:54:58.590Z,87.90
2022-08-08T06:57:29.458Z,87.30
2022-08-08T07:00:13.050Z,86.10
2022-08-08T07:02:51.621Z,85.90
2022-08-08T07:05:24.914Z,86.90
2022-08-08T07:08:08.901Z,83.60
2022-08-08T07:10:47.547Z,81.40
2022-08-08T07:13:17.826Z,75.10
2022-08-08T07:16:10.326Z,72.60
2022-08-08T07:19:06.324Z,71.80
2022-08-08T07:21:50.559Z,70.10
2022-08-08T07:24:31.508Z,68.40
2022-08-08T07:27:05.610Z,68.70
2022-08-08T07:30:01.725Z,66.60
2022-08-08T07:32:27.139Z,65.10
2022-08-08T07:35:00.887Z,65.10
2022-08-08T07:37:49.738Z,64.60
2022-08-08T07:40:29.714Z,65.00
2022-08-08T07:43:04.157Z,62.60
2022-08-08T07:46:05.319Z,63.00
2022-08-08T07:48:25.428Z,63.10
2022-08-08T07:51:00.640Z,62.00
2022-08-08T07:54:02.085Z,61.90
2022-08-08T07:56:36.208Z,61.40
2022-08-08T07:59:14.410Z,61.90
2022-08-08T08:02:35.535Z,60.30
2022-08-08T08:04:52.864Z,59.80
2022-08-08T08:07:26.012Z,59.80
2022-08-08T08:10:03.291Z,59.70
2022-08-08T08:12:41.287Z,59.00
2022-08-08T08:15:15.179Z,59.30
2022-08-08T08:17:49.099Z,59.00
2022-08-08T08:20:30.436Z,58.50
2022-08-08T08:22:59.070Z,57.80
2022-08-08T08:25:42.998Z,57.90
2022-08-08T08:28:21.441Z,58.30
2022-08-08T08:30:53.820Z,57.40
2022-08-08T08:33:23.115Z,58.20
2022-08-08T08:36:19.662Z,58.50
2022-08-08T08:39:17.356Z,57.90
2022-08-08T08:41:51.246Z,56.70
2022-08-08T08:44:19.440Z,56.70
2022-08-08T08:46:50.957Z,57.60
2022-08-08T08:49:22.469Z,57.00
2022-08-08T08:51:56.405Z,56.40
2022-08-08T08:54:26.056Z,56.90
2022-08-08T08:57:01.226Z,56.10
2022-08-08T09:00:01.789Z,56.20
2022-08-08T09:02:24.421Z,56.10
2022-08-08T09:04:59.195Z,55.90
2022-08-08T09:07:39.505Z,56.40
2022-08-08T09:10:17.608Z,56.40
2022-08-08T09:12:50.607Z,56.20
2022-08-08T09:15:40.904Z,54.90
2022-08-08T09:18:07.217Z,55.20
2022-08-08T09:22:02.791Z,55.60
2022-08-08T09:23:33.281Z,55.80
2022-08-08T09:26:39.565Z,54.00
2022-08-08T09:29:09.594Z,55.10
2022-08-08T09:31:56.593Z,54.50
2022-08-08T09:34:34.624Z,54.10
2022-08-08T09:37:58.322Z,54.70
2022-08-08T09:40:11.416Z,53.60
2022-08-08T09:42:51.430Z,54.30
2022-08-08T09:45:55.149Z,54.20
2022-08-08T09:48:28.894Z,54.30
2022-08-08T09:51:05.104Z,53.90
2022-08-08T09:54:06.878Z,54.40
2022-08-08T09:56:45.337Z,54.20
2022-08-08T10:00:02.152Z,53.80
2022-08-08T10:02:20.047Z,53.80
2022-08-08T10:04:52.626Z,54.00
2022-08-08T10:07:19.759Z,53.20
2022-08-08T10:10:00.119Z,53.10
2022-08-08T10:12:54.340Z,54.30
2022-08-08T10:15:26.639Z,52.90
2022-08-08T10:18:06.408Z,52.80
2022-08-08T10:20:57.767Z,52.90
2022-08-08T10:23:44.947Z,52.60
2022-08-08T10:26:16.905Z,52.70
2022-08-08T10:29:03.770Z,52.50
2022-08-08T10:31:53.369Z,52.60
2022-08-08T10:34:23.642Z,52.50
2022-08-08T10:36:52.056Z,52.10
2022-08-08T10:39:31.534Z,52.70
2022-08-08T10:42:14.944Z,52.50
2022-08-08T10:44:43.453Z,52.80
2022-08-08T10:47:21.218Z,52.00
2022-08-08T10:50:01.470Z,52.60
2022-08-08T10:52:34.174Z,52.60
2022-08-08T10:55:06.794Z,52.30
2022-08-08T10:57:50.101Z,52.40
2022-08-08T11:00:25.962Z,51.50
2022-08-08T11:02:54.951Z,52.40
2022-08-08T11:05:23.198Z,51.30
2022-08-08T11:08:37.054Z,51.40
2022-08-08T11:10:41.530Z,51.30
2022-08-08T11:16:01.172Z,51.50
2022-08-08T11:18:37.554Z,51.50
2022-08-08T11:21:09.314Z,51.00
2022-08-08T11:23:42.117Z,49.90
2022-08-08T11:26:18.755Z,50.20
2022-08-08T11:28:47.176Z,48.90
2022-08-08T11:31:18.217Z,49.40
2022-08-08T11:34:02.926Z,49.60
2022-08-08T11:36:33.216Z,49.90
2022-08-08T11:39:04.664Z,49.60
2022-08-08T11:41:32.249Z,49.10
2022-08-08T11:44:00.834Z,49.50
2022-08-08T11:46:30.598Z,49.50
2022-08-08T11:48:59.773Z,49.40
2022-08-08T11:51:38.383Z,49.30
2022-08-08T11:54:27.324Z,48.70
2022-08-08T11:56:57.920Z,47.90
2022-08-08T12:00:02.087Z,47.10
2022-08-08T12:02:41.697Z,47.00
2022-08-08T12:05:13.168Z,46.60
2022-08-08T12:11:03.232Z,46.90
2022-08-08T12:13:33.568Z,46.70
2022-08-08T12:16:19.828Z,47.70
2022-08-08T12:18:49.382Z,47.30
2022-08-08T12:21:59.919Z,47.50
2022-08-08T12:24:27.925Z,47.70
2022-08-08T12:26:57.153Z,47.10
2022-08-08T12:29:42.054Z,47.70
2022-08-08T12:32:20.176Z,46.80
2022-08-08T12:35:04.649Z,47.30
2022-08-08T12:37:43.191Z,46.50
2022-08-08T12:40:23.906Z,46.30
2022-08-08T12:42:52.564Z,46.10
2022-08-08T12:45:54.162Z,46.70
2022-08-08T12:48:36.481Z,45.70
2022-08-08T12:51:05.356Z,46.90
2022-08-08T12:53:42.464Z,45.90
2022-08-08T12:56:19.589Z,46.10
2022-08-08T12:58:54.506Z,46.00
2022-08-08T13:01:37.575Z,46.20
2022-08-08T13:04:24.386Z,46.30
2022-08-08T13:07:00.507Z,45.60
2022-08-08T13:09:57.494Z,45.60
2022-08-08T13:12:30.489Z,45.20
2022-08-08T13:14:59.748Z,45.30
2022-08-08T13:18:08.941Z,45.50
2022-08-08T13:20:19.826Z,45.20
2022-08-08T13:22:47.386Z,45.70
2022-08-08T13:25:22.051Z,45.60
2022-08-08T13:27:56.485Z,45.30
2022-08-08T13:30:28.528Z,45.30
2022-08-08T13:32:57.307Z,45.60
2022-08-08T13:35:29.807Z,45.40
2022-08-08T13:38:08.551Z,45.40
2022-08-08T13:40:41.682Z,44.90
2022-08-08T13:43:13.024Z,45.10
2022-08-08T13:45:40.942Z,44.70
2022-08-08T13:48:17.350Z,44.30
2022-08-08T13:50:57.699Z,44.80
2022-08-08T13:53:40.833Z,45.00
2022-08-08T13:56:59.543Z,45.30
2022-08-08T13:59:32.811Z,44.90
2022-08-08T14:02:05.364Z,44.80
2022-08-08T14:04:37.339Z,44.80
2022-08-08T14:07:24.566Z,44.90
2022-08-08T14:10:11.871Z,45.60
2022-08-08T14:12:43.819Z,44.20
2022-08-08T14:15:31.216Z,43.90
2022-08-08T14:18:34.623Z,45.20
2022-08-08T14:21:08.238Z,44.80
2022-08-08T14:24:07.911Z,44.80
2022-08-08T14:26:33.135Z,44.90
2022-08-08T14:29:01.668Z,44.80
2022-08-08T14:32:06.402Z,44.50
2022-08-08T14:34:23.227Z,44.50
2022-08-08T14:36:51.756Z,45.10
2022-08-08T14:39:25.049Z,44.50
2022-08-08T14:42:09.644Z,44.00
2022-08-08T14:44:39.471Z,44.30
2022-08-08T14:47:17.312Z,44.60
2022-08-08T14:50:06.535Z,44.20
2022-08-08T14:52:44.034Z,44.60
2022-08-08T14:55:14.170Z,44.50
2022-08-08T14:58:06.341Z,44.40
2022-08-08T15:00:32.940Z,44.30
2022-08-08T15:03:16.068Z,44.40
2022-08-08T15:05:54.245Z,44.40
2022-08-08T15:08:33.908Z,44.30
2022-08-08T15:11:04.192Z,44.30
2022-08-08T15:13:40.032Z,44.80
2022-08-08T15:16:18.251Z,44.80
2022-08-08T15:18:51.284Z,44.20
2022-08-08T15:21:19.309Z,44.50
2022-08-08T15:23:50.552Z,44.50
2022-08-08T15:26:17.444Z,44.50
2022-08-08T15:28:44.115Z,44.70
2022-08-08T15:31:25.800Z,44.20
2022-08-08T15:33:59.978Z,44.00
2022-08-08T15:36:28.879Z,44.60
2022-08-08T15:38:56.114Z,44.50
2022-08-08T15:41:24.917Z,44.50
2022-08-08T15:44:03.782Z,44.00
2022-08-08T15:46:35.203Z,43.70
2022-08-08T15:49:04.133Z,44.30
2022-08-08T15:51:33.481Z,44.70
2022-08-08T15:54:00.900Z,43.90
2022-08-08T15:56:27.620Z,44.20
2022-08-08T15:58:54.316Z,44.80
2022-08-08T16:01:22.446Z,44.80
2022-08-08T16:03:51.556Z,44.10
2022-08-08T16:06:28.505Z,43.80
2022-08-08T16:13:00.414Z,44.20
2022-08-08T16:13:15.355Z,44.30
2022-08-08T16:14:33.766Z,44.10
2022-08-08T16:17:01.365Z,43.70
2022-08-08T16:19:29.994Z,43.90
2022-08-08T16:21:57.853Z,43.60
2022-08-08T16:24:24.655Z,43.30
2022-08-08T16:26:51.441Z,43.20
2022-08-08T16:29:23.872Z,43.70
2022-08-08T16:32:08.296Z,43.90
2022-08-08T16:34:39.670Z,44.10
2022-08-08T16:37:06.339Z,44.30
2022-08-08T16:40:01.271Z,44.20
2022-08-08T16:42:19.995Z,44.00
2022-08-08T16:44:55.222Z,43.80
2022-08-08T16:47:40.040Z,43.80
2022-08-08T16:50:15.181Z,43.80
2022-08-08T16:55:04.914Z,43.20
2022-08-08T16:55:52.883Z,43.40
2022-08-08T16:58:22.323Z,43.90
2022-08-08T17:00:52.896Z,43.70
2022-08-08T17:03:25.127Z,43.60
2022-08-08T17:06:35.282Z,43.80
2022-08-08T17:08:54.607Z,44.60
2022-08-08T17:11:21.270Z,43.60
2022-08-08T17:14:00.941Z,43.70
2022-08-08T17:16:29.040Z,43.50
2022-08-08T17:18:56.623Z,43.70
2022-08-08T17:21:26.312Z,43.60
2022-08-08T17:24:01.460Z,43.80
2022-08-08T17:26:30.461Z,44.00
2022-08-08T17:29:04.240Z,44.30
2022-08-08T17:31:44.555Z,44.20
2022-08-08T17:34:52.812Z,44.40
2022-08-08T17:37:03.725Z,44.00
2022-08-08T17:40:05.067Z,44.20
2022-08-08T17:42:20.781Z,44.30
2022-08-08T17:44:50.880Z,44.50
2022-08-08T17:47:27.330Z,44.30
2022-08-08T17:50:01.300Z,44.60
2022-08-08T17:52:35.343Z,44.50
2022-08-08T17:55:05.090Z,44.50
2022-08-08T17:57:35.371Z,44.50
2022-08-08T18:00:13.265Z,44.40
2022-08-08T18:02:52.543Z,45.00
2022-08-08T18:05:48.471Z,44.90
2022-08-08T18:08:24.824Z,45.10
2022-08-08T18:11:16.974Z,45.50
2022-08-08T18:13:47.827Z,45.50
2022-08-08T18:16:16.859Z,45.70
2022-08-08T18:18:53.953Z,45.80
2022-08-08T18:21:59.436Z,45.80
2022-08-08T18:24:18.875Z,45.80
2022-08-08T18:26:54.508Z,46.00
2022-08-08T18:29:35.969Z,46.20
2022-08-08T18:32:07.859Z,46.60
2022-08-08T18:34:36.676Z,47.40
2022-08-08T18:37:08.153Z,47.50
2022-08-08T18:39:41.894Z,48.40
2022-08-08T18:42:15.914Z,48.60
2022-08-08T18:44:55.640Z,49.30
2022-08-08T18:47:24.116Z,49.90
2022-08-08T18:49:57.979Z,50.50
2022-08-08T18:52:26.434Z,50.90
2022-08-08T18:55:00.639Z,51.80
2022-08-08T18:57:41.144Z,52.50
2022-08-08T19:00:16.490Z,53.10
2022-08-08T19:02:54.689Z,53.70
2022-08-08T19:05:37.840Z,54.40
2022-08-08T19:08:24.987Z,55.00
2022-08-08T19:10:57.613Z,55.60
2022-08-08T19:13:25.516Z,56.30
2022-08-08T19:16:15.825Z,56.60
2022-08-08T19:18:51.282Z,57.30
2022-08-08T19:21:30.472Z,57.50
2022-08-08T19:23:58.563Z,58.00
2022-08-08T19:26:30.462Z,58.20
2022-08-08T19:29:01.792Z,58.50
2022-08-08T19:31:31.481Z,58.60
2022-08-08T19:34:36.694Z,58.80
2022-08-08T19:36:52.636Z,59.20
2022-08-08T19:39:19.719Z,59.60
2022-08-08T19:41:50.253Z,59.60
2022-08-08T19:44:27.029Z,59.80
2022-08-08T19:47:04.475Z,60.40
2022-08-08T19:49:36.679Z,60.60
2022-08-08T19:52:06.698Z,61.00
2022-08-08T19:54:33.735Z,61.40
2022-08-08T19:57:04.262Z,61.50
2022-08-08T19:59:35.215Z,61.80
2022-08-08T20:02:04.575Z,62.00
2022-08-08T20:04:33.492Z,62.40
2022-08-08T20:07:05.243Z,62.60
2022-08-08T20:09:55.667Z,62.80
2022-08-08T20:12:32.870Z,62.70
2022-08-08T20:15:14.985Z,62.80
2022-08-08T20:17:45.474Z,63.10
2022-08-08T20:20:19.212Z,63.70
2022-08-08T20:22:48.750Z,64.20
2022-08-08T20:25:20.406Z,64.70
2022-08-08T20:27:49.435Z,64.40
2022-08-08T20:30:52.475Z,65.00
2022-08-08T20:33:18.553Z,65.30
2022-08-08T20:35:58.047Z,65.40
2022-08-08T20:38:32.295Z,65.70
2022-08-08T20:41:15.380Z,65.80
2022-08-08T20:43:49.293Z,66.10
2022-08-08T20:46:20.842Z,66.20
2022-08-08T20:48:51.037Z,65.90
2022-08-08T20:51:18.254Z,65.70
2022-08-08T20:54:00.214Z,66.20
2022-08-08T20:56:35.558Z,66.30
2022-08-08T20:59:08.674Z,66.50
2022-08-08T21:01:44.472Z,66.90
2022-08-08T21:04:24.055Z,67.50
2022-08-08T21:06:54.861Z,68.20
2022-08-08T21:09:22.042Z,68.50
2022-08-08T21:11:51.689Z,69.00
2022-08-08T21:14:30.260Z,69.00
2022-08-08T21:17:01.355Z,69.30
2022-08-08T21:19:44.241Z,68.40
2022-08-08T21:22:13.000Z,68.50
2022-08-08T21:24:41.958Z,68.80
2022-08-08T21:27:38.750Z,68.90
2022-08-08T21:30:10.807Z,69.20
2022-08-08T21:32:44.243Z,69.60
2022-08-08T21:36:17.423Z,70.50
2022-08-08T21:38:04.002Z,70.70
2022-08-08T21:40:32.385Z,70.70
2022-08-08T21:42:59.348Z,71.20
2022-08-08T21:48:01.895Z,71.70
2022-08-08T21:48:21.163Z,71.90
2022-08-08T21:50:49.942Z,72.10
2022-08-08T21:54:22.982Z,73.20
2022-08-08T21:56:19.776Z,72.80
2022-08-08T21:58:55.010Z,73.10
2022-08-08T22:01:38.892Z,73.50
2022-08-08T22:04:06.846Z,73.80
2022-08-08T22:06:33.612Z,74.50
2022-08-08T22:09:08.243Z,74.30
2022-08-08T22:12:02.492Z,74.60
2022-08-08T22:14:23.779Z,74.60
2022-08-08T22:16:53.607Z,74.60
2022-08-08T22:19:24.157Z,74.80
2022-08-08T22:21:52.974Z,75.20
2022-08-08T22:24:23.920Z,75.20
2022-08-08T22:27:02.296Z,75.10
2022-08-08T22:29:59.523Z,75.30
2022-08-08T22:32:18.859Z,75.50
2022-08-08T22:34:51.011Z,75.80
2022-08-08T22:37:49.521Z,76.20
2022-08-08T22:40:16.468Z,76.40
2022-08-08T22:42:47.244Z,76.40
2022-08-08T22:45:15.516Z,76.60
2022-08-08T22:47:48.539Z,76.90
2022-08-08T22:50:25.528Z,77.40
2022-08-08T22:54:29.405Z,77.50
2022-08-08T22:55:59.041Z,77.90
2022-08-08T22:58:31.866Z,78.30
2022-08-08T23:01:00.691Z,78.70
2022-08-08T23:03:34.327Z,79.00
2022-08-08T23:06:17.637Z,79.40
2022-08-08T23:08:55.820Z,79.90
2022-08-08T23:11:31.329Z,80.00
2022-08-08T23:14:21.091Z,80.70
2022-08-08T23:16:57.563Z,81.10
2022-08-08T23:19:27.193Z,81.40
2022-08-08T23:21:54.271Z,81.60
2022-08-08T23:24:22.919Z,81.90
2022-08-08T23:26:53.383Z,82.20
2022-08-08T23:29:23.846Z,82.20
2022-08-08T23:31:50.580Z,82.50
2022-08-08T23:34:19.593Z,82.50
2022-08-08T23:36:47.862Z,82.80
2022-08-08T23:39:15.591Z,82.70
2022-08-08T23:41:47.256Z,83.30
2022-08-08T23:44:18.767Z,83.50
2022-08-08T23:49:05.625Z,84.10
2022-08-08T23:49:33.991Z,84.10
2022-08-08T23:52:04.337Z,84.20
2022-08-08T23:54:43.053Z,83.70
2022-08-08T23:57:27.578Z,83.10
